West Jersey, Illinois
Current Conditions -  °F | °C
As of 7:55 PM on Friday 21 Nov 2014 (Local Time) from KC75 Reporting Station
Overcast Overcast  
Wind Chill: 26°   Ceiling: 2800
Heat Index: 34°   Visibility: 10mi
Dew Point: 13°   Wind: 10mph
Humidity: 42%   Direction: 170°S
Pressure: 30.24"   Gusts: 18mph
Location:  41.1043°N, 89.8577°W
Report Text: KC75 220155Z AUTO 17009G16KT 10SM OVC028 01/M10 A3024 RMK AO2 T00111105
Loading
Personal Weather Stations






























Interactive Weather Map New forecast layout! Learn more

10-Day Weather Forecast

Advertisements
Track Severe Weather on mobile